Time;durP1;ratioP1;P1;durP2;ratioP2;P2;SDS_P1;SDS_P2;PMS_P1;PMS_P2;Temp;Humidity;BMP_temperature;BMP_pressure;BME280_temperature;BME280_humidity;BME280_pressure;Samples;Min_cycle;Max_cycle;Signal;HPM_P1;HPM_P2
2022/12/29 00:00:11;;;;;;;5.00;3.17;;;9.10;99.90;;;;;;5083223;28;20782;-70
2022/12/29 00:02:38;;;;;;;3.93;3.40;;;9.10;99.90;;;;;;5084742;28;20478;-71
2022/12/29 00:05:05;;;;;;;3.90;3.60;;;9.10;99.90;;;;;;5091019;28;20448;-71
2022/12/29 00:07:34;;;;;;;4.77;3.40;;;9.10;99.90;;;;;;5088492;28;20454;-70
2022/12/29 00:10:00;;;;;;;4.73;3.30;;;9.20;99.90;;;;;;5082364;28;20468;-70
2022/12/29 00:15:36;;;;;;;5.93;3.50;;;9.20;99.90;;;;;;5081806;28;20525;-70
2022/12/29 00:17:58;;;;;;;3.97;3.43;;;9.10;99.90;;;;;;5090373;28;20442;-70
2022/12/29 00:36:49;;;;;;;4.20;3.83;;;9.50;99.90;;;;;;5082561;28;20490;-71
2022/12/29 00:44:59;;;;;;;4.53;4.13;;;9.50;99.90;;;;;;5085936;28;20479;-70
2022/12/29 00:47:26;;;;;;;5.77;3.63;;;9.60;99.90;;;;;;5085945;28;20459;-70
2022/12/29 00:49:51;;;;;;;8.40;3.23;;;9.60;99.90;;;;;;5081372;28;20463;-70
2022/12/29 00:52:18;;;;;;;4.60;3.33;;;9.60;99.90;;;;;;5079680;28;20482;-70
2022/12/29 00:54:46;;;;;;;7.80;3.70;;;9.70;99.90;;;;;;5075581;28;20202;-70
2022/12/29 00:57:13;;;;;;;4.47;3.43;;;9.80;99.90;;;;;;5083035;28;20858;-70
2022/12/29 00:59:40;;;;;;;4.07;3.57;;;9.80;99.90;;;;;;5089231;28;20474;-70
2022/12/29 01:02:07;;;;;;;3.83;3.17;;;9.80;99.90;;;;;;5081144;28;20817;-70
2022/12/29 01:04:34;;;;;;;4.47;3.03;;;9.90;99.90;;;;;;5081279;28;20460;-70
2022/12/29 01:07:01;;;;;;;3.27;3.03;;;9.90;99.90;;;;;;5080106;28;20504;-70
2022/12/29 01:12:13;;;;;;;5.20;3.97;;;9.80;99.90;;;;;;5087136;28;20435;-70
2022/12/29 01:14:40;;;;;;;3.83;2.90;;;9.90;99.90;;;;;;5087618;28;20500;-71
2022/12/29 01:17:07;;;;;;;3.30;2.97;;;9.90;99.90;;;;;;5081269;28;20517;-70
2022/12/29 01:19:34;;;;;;;4.67;2.67;;;9.90;99.90;;;;;;5077548;28;20541;-70
2022/12/29 01:22:00;;;;;;;5.33;3.00;;;9.90;99.90;;;;;;5077479;28;20490;-70
2022/12/29 01:24:27;;;;;;;3.10;2.90;;;9.90;99.90;;;;;;5085025;28;20504;-70
2022/12/29 01:26:54;;;;;;;4.63;3.30;;;9.90;99.90;;;;;;5086164;28;20452;-70
2022/12/29 01:29:22;;;;;;;5.70;3.00;;;9.80;99.90;;;;;;5088842;28;20676;-70
2022/12/29 01:31:49;;;;;;;2.50;2.30;;;9.80;99.90;;;;;;5082099;28;20447;-70
2022/12/29 01:34:16;;;;;;;3.13;2.83;;;9.80;99.90;;;;;;5075341;28;21021;-70
2022/12/29 01:36:42;;;;;;;3.70;2.97;;;9.80;99.90;;;;;;5080939;28;20459;-70
2022/12/29 01:39:09;;;;;;;3.57;2.83;;;9.80;99.90;;;;;;5088584;28;20471;-70
2022/12/29 01:41:36;;;;;;;3.20;2.90;;;9.80;99.90;;;;;;5086197;28;20823;-70
2022/12/29 01:44:02;;;;;;;4.47;3.17;;;9.80;99.90;;;;;;5080261;28;20451;-71
2022/12/29 01:46:34;;;;;;;2.90;2.70;;;9.90;99.90;;;;;;5080936;28;20868;-70
2022/12/29 01:49:09;;;;;;;2.90;2.70;;;9.90;99.90;;;;;;5072570;28;20455;-70
2022/12/29 01:51:39;;;;;;;2.50;2.40;;;9.90;99.90;;;;;;5085639;28;20455;-70
2022/12/29 01:54:10;;;;;;;3.87;2.40;;;9.90;99.90;;;;;;5078398;28;20482;-70
2022/12/29 01:56:37;;;;;;;3.10;2.57;;;9.90;99.90;;;;;;5080164;28;20455;-70
2022/12/29 01:59:10;;;;;;;3.80;3.00;;;9.90;99.90;;;;;;5078200;28;20847;-70
2022/12/29 02:01:38;;;;;;;2.83;2.63;;;10.00;99.90;;;;;;5083342;28;20535;-71
2022/12/29 02:04:05;;;;;;;2.53;2.33;;;10.00;99.90;;;;;;5076810;28;20976;-70
2022/12/29 02:06:37;;;;;;;3.03;2.77;;;10.00;99.90;;;;;;5088762;28;20500;-70
2022/12/29 02:09:04;;;;;;;2.30;2.10;;;10.00;99.90;;;;;;5085071;28;20479;-71
2022/12/29 02:11:31;;;;;;;3.20;2.90;;;10.00;99.90;;;;;;5081928;28;20513;-70
2022/12/29 02:13:58;;;;;;;2.30;2.17;;;10.00;99.90;;;;;;5076811;28;20451;-70
2022/12/29 02:16:36;;;;;;;3.77;2.50;;;10.10;99.90;;;;;;5079236;28;20948;-70
2022/12/29 02:19:31;;;;;;;3.13;2.43;;;10.10;99.90;;;;;;5088519;28;20482;-70
2022/12/29 02:22:06;;;;;;;2.67;2.13;;;10.00;99.90;;;;;;5078817;28;20478;-70
2022/12/29 02:25:01;;;;;;;2.40;2.23;;;10.00;99.90;;;;;;5082152;28;20485;-71
2022/12/29 02:27:41;;;;;;;2.50;2.23;;;10.10;99.90;;;;;;5083084;28;20452;-71
2022/12/29 02:30:16;;;;;;;3.20;2.90;;;10.00;99.90;;;;;;5078180;28;20468;-71
2022/12/29 02:32:52;;;;;;;9.27;2.33;;;10.00;99.90;;;;;;5085495;28;20500;-70
2022/12/29 02:35:28;;;;;;;2.70;2.20;;;10.00;99.90;;;;;;5085717;28;20474;-70
2022/12/29 02:38:01;;;;;;;2.27;2.17;;;10.00;99.90;;;;;;5086087;28;20516;-70
2022/12/29 02:40:36;;;;;;;1.97;1.87;;;10.00;99.90;;;;;;5081503;28;20532;-71
2022/12/29 02:43:09;;;;;;;2.20;2.10;;;10.00;99.90;;;;;;5077858;28;20537;-70
2022/12/29 02:45:48;;;;;;;2.50;2.30;;;10.10;99.90;;;;;;5088819;28;20509;-71
2022/12/29 02:48:21;;;;;;;2.37;2.17;;;10.10;99.90;;;;;;5084947;28;20870;-72
2022/12/29 02:50:53;;;;;;;6.23;2.13;;;10.20;99.90;;;;;;5084259;28;20459;-71
2022/12/29 02:54:40;;;;;;;2.10;2.00;;;10.20;99.90;;;;;;5082941;28;20794;-71
2022/12/29 02:56:07;;;;;;;2.10;2.00;;;10.20;99.90;;;;;;5086598;28;20491;-71
2022/12/29 02:58:34;;;;;;;2.10;2.00;;;10.10;99.90;;;;;;5086462;28;20544;-71
2022/12/29 03:01:18;;;;;;;5.20;2.40;;;10.10;99.90;;;;;;5085659;28;20247;-71
2022/12/29 03:03:57;;;;;;;2.73;2.03;;;10.00;99.90;;;;;;5079867;28;20890;-71
2022/12/29 03:06:36;;;;;;;2.10;2.00;;;10.00;99.90;;;;;;5082135;28;20444;-71
2022/12/29 03:09:11;;;;;;;2.03;1.93;;;9.90;99.90;;;;;;5083776;28;20443;-71
2022/12/29 03:17:27;;;;;;;3.97;2.17;;;10.00;99.90;;;;;;5083675;28;20506;-71
2022/12/29 03:20:02;;;;;;;3.20;2.40;;;10.00;99.90;;;;;;5079511;28;20532;-71
2022/12/29 03:22:32;;;;;;;2.60;2.40;;;10.00;99.90;;;;;;5077700;28;20491;-70
2022/12/29 03:25:03;;;;;;;3.63;2.20;;;10.00;99.90;;;;;;5072248;28;20467;-71
2022/12/29 03:27:32;;;;;;;3.10;2.63;;;10.00;99.90;;;;;;5086927;28;20866;-71
2022/12/29 03:30:03;;;;;;;4.90;2.50;;;10.00;99.90;;;;;;5087324;28;20467;-70
2022/12/29 03:32:35;;;;;;;2.63;2.43;;;10.00;99.90;;;;;;5087411;28;20949;-71
2022/12/29 03:35:05;;;;;;;2.30;2.20;;;10.00;99.90;;;;;;5080198;28;20534;-71
2022/12/29 03:37:36;;;;;;;5.13;2.70;;;10.00;99.90;;;;;;5081002;28;20477;-71
2022/12/29 03:40:04;;;;;;;2.40;2.20;;;9.90;99.90;;;;;;5083330;28;20528;-71
2022/12/29 03:42:34;;;;;;;2.20;2.10;;;9.90;99.90;;;;;;5090630;28;20893;-71
2022/12/29 03:45:01;;;;;;;2.53;2.33;;;9.90;99.90;;;;;;5084913;28;20792;-70
2022/12/29 03:47:28;;;;;;;2.53;2.43;;;9.90;99.90;;;;;;5083157;28;20448;-71
2022/12/29 03:49:55;;;;;;;2.30;2.10;;;9.90;99.90;;;;;;5083424;28;20877;-70
2022/12/29 03:52:23;;;;;;;2.37;2.17;;;9.90;99.90;;;;;;5086014;28;20443;-71
2022/12/29 03:54:50;;;;;;;4.03;2.10;;;9.80;99.90;;;;;;5090706;28;20459;-71
2022/12/29 03:57:16;;;;;;;2.50;2.30;;;9.80;99.90;;;;;;5088610;28;20878;-71
2022/12/29 03:59:43;;;;;;;2.50;2.30;;;9.80;99.90;;;;;;5079572;28;20517;-71
2022/12/29 04:02:10;;;;;;;2.33;2.23;;;9.80;99.90;;;;;;5084087;28;20463;-71
2022/12/29 04:04:36;;;;;;;2.00;1.90;;;9.80;99.90;;;;;;5079222;28;20506;-71
2022/12/29 04:07:03;;;;;;;3.83;1.90;;;9.80;99.90;;;;;;5089036;28;20447;-71
2022/12/29 04:09:31;;;;;;;2.50;2.27;;;9.80;99.90;;;;;;5089581;28;20536;-70
2022/12/29 04:11:58;;;;;;;2.00;1.80;;;9.80;99.90;;;;;;5084811;28;20451;-70
2022/12/29 04:14:24;;;;;;;1.90;1.80;;;9.80;99.90;;;;;;5085447;28;20519;-70
2022/12/29 04:16:51;;;;;;;2.17;1.73;;;9.80;99.90;;;;;;5083411;28;20485;-71
2022/12/29 04:19:18;;;;;;;3.30;2.00;;;9.80;99.90;;;;;;5079375;28;20474;-70
2022/12/29 04:21:44;;;;;;;2.00;1.90;;;9.70;99.90;;;;;;5089877;28;20463;-70
2022/12/29 04:24:12;;;;;;;1.63;1.53;;;9.70;99.90;;;;;;5084004;28;20497;-70
2022/12/29 04:26:41;;;;;;;1.87;1.77;;;9.70;99.90;;;;;;5082605;28;20994;-71
2022/12/29 04:29:07;;;;;;;2.33;2.17;;;9.70;99.90;;;;;;5077215;28;20470;-71
2022/12/29 04:31:34;;;;;;;3.00;1.60;;;9.70;99.90;;;;;;5084947;28;20451;-71
2022/12/29 04:34:01;;;;;;;2.50;2.30;;;9.80;99.90;;;;;;5088261;28;20846;-70
2022/12/29 04:36:27;;;;;;;2.30;2.10;;;9.80;99.90;;;;;;5083996;28;20452;-71
2022/12/29 04:38:54;;;;;;;2.50;2.30;;;9.80;99.90;;;;;;5081933;28;20447;-71
2022/12/29 04:41:21;;;;;;;2.40;2.20;;;9.80;99.90;;;;;;5081236;28;20444;-70
2022/12/29 04:43:49;;;;;;;2.13;2.00;;;9.80;99.90;;;;;;5082309;28;21072;-71
2022/12/29 04:46:15;;;;;;;2.20;2.10;;;9.80;99.90;;;;;;5087056;28;20452;-71
2022/12/29 04:48:42;;;;;;;4.23;2.30;;;9.80;99.90;;;;;;5086416;28;20456;-70
2022/12/29 04:51:08;;;;;;;4.70;2.57;;;9.80;99.90;;;;;;5078402;28;20535;-71
2022/12/29 04:53:35;;;;;;;2.27;2.07;;;9.80;99.90;;;;;;5074597;28;20448;-71
2022/12/29 04:56:02;;;;;;;4.57;3.07;;;9.80;99.90;;;;;;5087882;28;20459;-71
2022/12/29 04:58:28;;;;;;;3.20;2.80;;;9.90;99.90;;;;;;5086126;28;20855;-71
2022/12/29 05:00:56;;;;;;;3.40;2.50;;;9.90;99.90;;;;;;5083270;28;20482;-71
2022/12/29 05:03:23;;;;;;;4.40;2.27;;;9.90;99.90;;;;;;5079491;28;20537;-71
2022/12/29 05:05:49;;;;;;;4.10;2.57;;;9.90;99.90;;;;;;5091679;28;20505;-70
2022/12/29 05:08:16;;;;;;;5.97;2.90;;;9.90;99.90;;;;;;5087895;28;20451;-71
2022/12/29 05:10:45;;;;;;;3.77;2.80;;;9.90;99.90;;;;;;5084974;28;20483;-71
2022/12/29 05:13:12;;;;;;;3.60;2.70;;;9.90;99.90;;;;;;5077850;28;20454;-71
2022/12/29 05:15:39;;;;;;;4.20;2.30;;;9.90;99.90;;;;;;5086215;28;20873;-71
2022/12/29 05:18:07;;;;;;;3.60;2.40;;;9.90;99.90;;;;;;5089911;28;20455;-71
2022/12/29 05:20:33;;;;;;;3.73;2.30;;;9.80;99.90;;;;;;5086933;28;20475;-71
2022/12/29 05:23:00;;;;;;;3.33;2.43;;;9.80;99.90;;;;;;5086801;28;20896;-71
2022/12/29 05:25:26;;;;;;;4.73;2.70;;;9.80;99.90;;;;;;5077043;28;20505;-71
2022/12/29 05:27:53;;;;;;;2.93;2.60;;;9.80;99.90;;;;;;5083555;28;20500;-71
2022/12/29 05:30:20;;;;;;;2.60;2.40;;;9.80;99.90;;;;;;5088780;28;20542;-71
2022/12/29 05:32:46;;;;;;;3.70;3.10;;;9.80;99.90;;;;;;5086378;28;20496;-71
2022/12/29 05:35:14;;;;;;;3.03;2.73;;;9.80;99.90;;;;;;5080287;28;21011;-71
2022/12/29 05:37:41;;;;;;;6.30;2.93;;;9.90;99.90;;;;;;5076456;28;20943;-71
2022/12/29 05:40:09;;;;;;;7.33;2.87;;;9.90;99.90;;;;;;5082317;28;20474;-70
2022/12/29 05:42:35;;;;;;;4.80;3.10;;;9.90;99.90;;;;;;5083088;28;20860;-70
2022/12/29 05:45:02;;;;;;;3.57;2.97;;;9.90;99.90;;;;;;5085476;28;20459;-71
2022/12/29 05:47:29;;;;;;;3.33;2.80;;;9.90;99.90;;;;;;5086310;28;20464;-71
2022/12/29 05:49:55;;;;;;;4.70;3.13;;;9.90;99.90;;;;;;5079720;28;20472;-71
2022/12/29 05:52:23;;;;;;;4.50;2.73;;;9.90;99.90;;;;;;5073817;28;20935;-71
2022/12/29 05:54:50;;;;;;;2.47;2.27;;;9.90;99.90;;;;;;5078020;28;20447;-70
2022/12/29 05:57:17;;;;;;;4.07;3.00;;;9.90;99.90;;;;;;5084730;28;20452;-71
2022/12/29 05:59:43;;;;;;;3.40;2.80;;;9.90;99.90;;;;;;5082136;28;20472;-71
2022/12/29 06:02:10;;;;;;;4.00;3.00;;;9.80;99.90;;;;;;5080876;28;20850;-71
2022/12/29 06:04:37;;;;;;;5.90;2.83;;;9.80;99.90;;;;;;5077373;28;20480;-70
2022/12/29 06:07:03;;;;;;;2.80;2.50;;;9.80;99.90;;;;;;5085448;28;20494;-71
2022/12/29 06:09:31;;;;;;;3.03;2.83;;;9.80;99.90;;;;;;5082652;28;20998;-71
2022/12/29 06:11:58;;;;;;;4.70;2.80;;;9.80;99.90;;;;;;5086194;28;20456;-71
2022/12/29 06:14:25;;;;;;;3.20;2.57;;;9.80;99.90;;;;;;5073834;28;21001;-71
2022/12/29 06:16:51;;;;;;;2.43;2.23;;;9.70;99.90;;;;;;5085690;28;20455;-71
2022/12/29 06:19:18;;;;;;;2.37;2.27;;;9.70;99.90;;;;;;5086806;28;20483;-71
2022/12/29 06:21:45;;;;;;;4.73;2.40;;;9.70;99.90;;;;;;5077157;28;20870;-71
2022/12/29 06:24:11;;;;;;;4.07;2.37;;;9.70;99.90;;;;;;5077337;28;21005;-71
2022/12/29 06:26:40;;;;;;;2.67;2.20;;;9.70;99.90;;;;;;5085250;28;20801;-71
2022/12/29 06:29:07;;;;;;;4.97;2.40;;;9.80;99.90;;;;;;5087174;28;20562;-71
2022/12/29 06:31:34;;;;;;;7.53;2.40;;;9.80;99.90;;;;;;5085385;28;20452;-71
2022/12/29 06:34:01;;;;;;;6.43;2.43;;;9.80;99.90;;;;;;5083035;28;20451;-71
2022/12/29 06:36:27;;;;;;;2.70;2.40;;;9.80;99.90;;;;;;5076000;28;20456;-71
2022/12/29 06:38:54;;;;;;;2.70;2.40;;;9.70;99.90;;;;;;5085244;28;20452;-71
2022/12/29 06:41:21;;;;;;;2.80;2.60;;;9.70;99.90;;;;;;5085582;28;20887;-71
2022/12/29 06:43:49;;;;;;;3.70;2.30;;;9.70;99.90;;;;;;5083084;28;21028;-71
2022/12/29 06:46:16;;;;;;;2.47;2.33;;;9.70;99.90;;;;;;5081819;28;20454;-70
2022/12/29 06:48:43;;;;;;;2.80;2.60;;;9.70;99.90;;;;;;5072245;28;20569;-71
2022/12/29 06:51:09;;;;;;;2.53;2.33;;;9.70;99.90;;;;;;5085911;28;20463;-71
2022/12/29 06:53:36;;;;;;;2.73;2.43;;;9.70;99.90;;;;;;5086555;28;20447;-71
2022/12/29 06:56:02;;;;;;;2.53;2.33;;;9.70;99.90;;;;;;5081918;28;20480;-71
2022/12/29 06:58:29;;;;;;;2.80;2.50;;;9.80;99.90;;;;;;5084960;28;20459;-71
2022/12/29 07:00:57;;;;;;;3.50;2.80;;;9.80;99.90;;;;;;5084832;28;20525;-71
2022/12/29 07:03:24;;;;;;;2.40;2.20;;;9.80;99.90;;;;;;5091484;28;20567;-71
2022/12/29 07:05:51;;;;;;;2.73;2.53;;;9.80;99.90;;;;;;5087031;28;20456;-70
2022/12/29 07:08:18;;;;;;;2.80;2.60;;;9.70;99.90;;;;;;5086312;28;21008;-70
2022/12/29 07:10:45;;;;;;;2.80;2.60;;;9.70;99.90;;;;;;5086673;28;20475;-70
2022/12/29 07:13:11;;;;;;;6.00;2.90;;;9.60;99.90;;;;;;5087106;28;20479;-70
2022/12/29 07:15:38;;;;;;;2.87;2.57;;;9.60;99.90;;;;;;5090479;28;20876;-71
2022/12/29 07:18:06;;;;;;;3.63;2.80;;;9.60;99.90;;;;;;5088611;28;20452;-71
2022/12/29 07:20:33;;;;;;;2.93;2.63;;;9.60;99.90;;;;;;5086855;28;20475;-71
2022/12/29 07:23:00;;;;;;;3.00;2.30;;;9.60;99.90;;;;;;5088165;28;20447;-71
2022/12/29 07:25:26;;;;;;;2.80;2.60;;;9.60;99.90;;;;;;5091079;28;20491;-71
2022/12/29 07:27:53;;;;;;;2.30;2.17;;;9.60;99.90;;;;;;5091888;28;20458;-71
2022/12/29 07:30:20;;;;;;;4.90;2.50;;;9.60;99.90;;;;;;5087249;28;20505;-70
2022/12/29 07:32:46;;;;;;;2.93;2.50;;;9.60;99.90;;;;;;5085955;28;20890;-71
2022/12/29 07:35:14;;;;;;;3.67;2.20;;;9.60;99.90;;;;;;5086155;28;20443;-71
2022/12/29 07:37:41;;;;;;;2.50;2.30;;;9.60;99.90;;;;;;5087142;28;20870;-72
2022/12/29 07:40:09;;;;;;;2.30;2.20;;;9.60;99.90;;;;;;5085626;28;20980;-71
2022/12/29 07:42:36;;;;;;;6.67;2.70;;;9.60;99.90;;;;;;5087040;28;20454;-71
2022/12/29 07:45:03;;;;;;;3.63;2.10;;;9.60;99.90;;;;;;5086419;28;20487;-71
2022/12/29 07:47:30;;;;;;;2.10;2.00;;;9.60;99.90;;;;;;5086680;28;20481;-71
2022/12/29 07:49:57;;;;;;;2.83;2.60;;;9.70;99.90;;;;;;5084136;28;20483;-72
2022/12/29 07:52:25;;;;;;;3.90;2.30;;;9.70;99.90;;;;;;5084443;28;20516;-71
2022/12/29 07:54:51;;;;;;;3.40;2.40;;;9.70;99.90;;;;;;5084108;28;21026;-71
2022/12/29 07:57:18;;;;;;;3.00;2.70;;;9.80;99.90;;;;;;5085402;28;20532;-72
2022/12/29 07:59:45;;;;;;;3.87;2.50;;;9.80;99.90;;;;;;5085991;28;20503;-72
2022/12/29 08:02:12;;;;;;;2.73;2.53;;;9.80;99.90;;;;;;5085666;28;20524;-72
2022/12/29 08:04:38;;;;;;;2.93;2.63;;;9.90;99.90;;;;;;5085175;28;21827;-72
2022/12/29 08:07:05;;;;;;;6.03;2.93;;;9.90;99.90;;;;;;5085671;28;20447;-71
2022/12/29 08:09:33;;;;;;;3.83;3.07;;;10.00;99.90;;;;;;5083679;28;21059;-71
2022/12/29 08:12:00;;;;;;;7.10;2.70;;;10.10;99.90;;;;;;5085195;28;20508;-71
2022/12/29 08:14:26;;;;;;;3.10;2.80;;;10.20;99.90;;;;;;5084570;28;20497;-72
2022/12/29 08:16:53;;;;;;;7.50;2.90;;;10.30;99.90;;;;;;5086584;28;20451;-71
2022/12/29 08:19:20;;;;;;;4.03;3.03;;;10.30;99.90;;;;;;5085353;28;20513;-71
2022/12/29 08:21:46;;;;;;;4.83;2.80;;;10.40;99.90;;;;;;5083796;28;20520;-71
2022/12/29 08:24:13;;;;;;;4.80;2.77;;;10.40;99.90;;;;;;5084497;28;20502;-71
2022/12/29 08:26:41;;;;;;;2.33;2.13;;;10.40;99.90;;;;;;5085759;28;20451;-71
2022/12/29 08:29:07;;;;;;;2.77;2.57;;;10.50;99.90;;;;;;5085421;28;20520;-71
2022/12/29 08:31:34;;;;;;;2.90;2.53;;;10.60;99.90;;;;;;5085270;28;20479;-71
2022/12/29 08:34:03;;;;;;;6.17;2.87;;;10.70;99.90;;;;;;5084725;28;20456;-70
2022/12/29 08:36:29;;;;;;;3.07;2.40;;;10.80;99.90;;;;;;5085659;28;20443;-70
2022/12/29 08:38:56;;;;;;;10.20;3.10;;;10.90;99.90;;;;;;5085609;28;20446;-69
2022/12/29 08:41:23;;;;;;;2.40;2.20;;;11.00;99.90;;;;;;5083948;28;20455;-70
2022/12/29 08:43:51;;;;;;;3.20;2.70;;;11.00;99.90;;;;;;5084322;28;20482;-71
2022/12/29 08:46:19;;;;;;;3.33;3.03;;;10.90;99.90;;;;;;5084738;28;20455;-70
2022/12/29 08:48:45;;;;;;;12.33;3.20;;;10.90;99.90;;;;;;5083271;28;20451;-70
2022/12/29 08:51:12;;;;;;;9.20;3.30;;;10.80;99.90;;;;;;5083515;28;20454;-70
2022/12/29 08:53:39;;;;;;;3.03;2.60;;;10.70;99.90;;;;;;5083583;28;20459;-70
2022/12/29 08:56:07;;;;;;;5.80;3.20;;;10.70;99.90;;;;;;5084388;28;20492;-70
2022/12/29 08:58:34;;;;;;;5.60;2.97;;;10.60;99.90;;;;;;5085069;28;20852;-70
2022/12/29 09:01:02;;;;;;;10.47;3.00;;;10.60;99.90;;;;;;5084166;28;20552;-71
2022/12/29 09:03:28;;;;;;;6.57;3.10;;;10.50;99.90;;;;;;5084052;28;20455;-71
2022/12/29 09:05:56;;;;;;;5.60;2.90;;;10.40;99.90;;;;;;5085041;28;20536;-71
2022/12/29 09:08:23;;;;;;;3.57;3.17;;;10.40;99.90;;;;;;5084776;28;20838;-71
2022/12/29 09:10:50;;;;;;;3.10;2.90;;;10.30;99.90;;;;;;5083138;28;20531;-70
2022/12/29 09:13:18;;;;;;;9.10;3.40;;;10.30;99.90;;;;;;5082083;28;20455;-70
2022/12/29 09:15:46;;;;;;;5.37;2.83;;;10.20;99.90;;;;;;5083721;28;20512;-69
2022/12/29 09:18:13;;;;;;;4.73;2.97;;;10.20;99.90;;;;;;5083825;28;20471;-70
2022/12/29 09:20:40;;;;;;;4.53;3.33;;;10.20;99.90;;;;;;5083742;28;20475;-70
2022/12/29 09:23:07;;;;;;;6.50;3.83;;;10.10;99.90;;;;;;5083148;28;20455;-70
2022/12/29 09:25:34;;;;;;;5.30;3.00;;;10.10;99.90;;;;;;5082352;28;20487;-70
2022/12/29 09:28:03;;;;;;;7.10;3.50;;;10.10;99.90;;;;;;5083731;28;20486;-70
2022/12/29 09:30:30;;;;;;;7.20;3.60;;;10.10;99.90;;;;;;5083179;28;20505;-70
2022/12/29 09:32:57;;;;;;;3.47;2.83;;;10.10;99.90;;;;;;5082728;28;20867;-71
2022/12/29 09:35:25;;;;;;;7.00;3.37;;;10.10;99.90;;;;;;5082735;28;20508;-70
2022/12/29 09:37:51;;;;;;;2.70;2.50;;;10.10;99.90;;;;;;5083795;28;20500;-69
2022/12/29 09:40:26;;;;;;;5.43;3.33;;;10.10;99.90;;;;;;5082851;28;20471;-69
2022/12/29 09:43:17;;;;;;;4.23;3.00;;;10.00;99.90;;;;;;5083338;28;20458;-69
2022/12/29 09:45:47;;;;;;;7.43;3.47;;;10.10;99.90;;;;;;5082518;28;20490;-70
2022/12/29 09:48:18;;;;;;;4.23;3.63;;;10.00;99.90;;;;;;5082184;28;20508;-69
2022/12/29 09:50:51;;;;;;;7.63;3.20;;;10.00;99.90;;;;;;5082136;28;20471;-69
2022/12/29 09:53:26;;;;;;;4.00;3.67;;;10.00;99.90;;;;;;5081498;28;20542;-69
2022/12/29 09:55:55;;;;;;;4.93;3.50;;;10.00;99.90;;;;;;5082579;28;20504;-69
2022/12/29 09:58:29;;;;;;;8.10;3.30;;;10.10;99.90;;;;;;5082301;28;20455;-70
2022/12/29 10:01:01;;;;;;;5.03;3.33;;;10.10;99.90;;;;;;5081982;28;20489;-69
2022/12/29 10:03:37;;;;;;;6.50;3.60;;;10.10;99.90;;;;;;5082470;28;20500;-69
2022/12/29 10:06:11;;;;;;;3.40;3.00;;;10.20;99.90;;;;;;5082614;28;20490;-69
2022/12/29 10:08:43;;;;;;;7.57;3.37;;;10.20;99.90;;;;;;5083195;28;20493;-69
2022/12/29 10:11:32;;;;;;;3.73;3.43;;;10.20;99.90;;;;;;5082733;28;21054;-70
2022/12/29 10:14:18;;;;;;;3.40;3.10;;;10.20;99.90;;;;;;5082859;28;20451;-70
2022/12/29 10:16:57;;;;;;;4.67;3.80;;;10.20;99.90;;;;;;5083633;28;20452;-69
2022/12/29 10:19:45;;;;;;;4.87;3.17;;;10.20;99.90;;;;;;5083015;28;20997;-69
2022/12/29 10:22:25;;;;;;;5.00;3.40;;;10.20;99.90;;;;;;5082590;28;21018;-71
2022/12/29 10:24:56;;;;;;;5.57;3.37;;;10.20;99.90;;;;;;5084849;28;20528;-71
2022/12/29 10:27:22;;;;;;;4.60;3.20;;;10.20;99.90;;;;;;5081222;28;20733;-69
2022/12/29 10:29:53;;;;;;;2.60;2.40;;;10.10;99.90;;;;;;5078223;28;20536;-70
2022/12/29 10:32:28;;;;;;;2.60;2.50;;;10.10;99.90;;;;;;5082384;28;20459;-70
2022/12/29 10:34:59;;;;;;;3.23;2.70;;;10.10;99.90;;;;;;5084146;28;20447;-71
2022/12/29 10:37:33;;;;;;;2.53;2.33;;;10.30;99.90;;;;;;5088539;28;20540;-71
2022/12/29 10:40:03;;;;;;;3.20;2.80;;;10.40;99.90;;;;;;5090137;28;20471;-70
2022/12/29 10:42:37;;;;;;;5.67;2.40;;;10.50;99.90;;;;;;5085991;28;20924;-69
2022/12/29 10:45:06;;;;;;;3.70;2.93;;;10.50;99.90;;;;;;5086433;28;20486;-70
2022/12/29 10:47:39;;;;;;;4.93;3.20;;;10.50;99.90;;;;;;5088302;28;20452;-70
2022/12/29 10:50:07;;;;;;;5.43;3.50;;;10.50;99.90;;;;;;5086356;28;20885;-71
2022/12/29 10:52:38;;;;;;;4.60;3.30;;;10.60;99.90;;;;;;5087005;28;20539;-71
2022/12/29 10:55:13;;;;;;;3.03;2.73;;;10.80;99.90;;;;;;5087755;28;20458;-71
2022/12/29 10:57:43;;;;;;;5.10;2.40;;;11.10;99.90;;;;;;5089310;28;20454;-70
2022/12/29 11:00:14;;;;;;;5.83;3.47;;;11.50;99.90;;;;;;5090157;28;20482;-71
2022/12/29 11:03:02;;;;;;;3.17;2.97;;;11.70;99.90;;;;;;5089367;28;20495;-70
2022/12/29 11:05:36;;;;;;;3.50;2.07;;;11.90;99.90;;;;;;5089275;28;20486;-71
2022/12/29 11:08:11;;;;;;;2.20;2.03;;;11.80;99.90;;;;;;5090302;28;20513;-71
2022/12/29 11:10:40;;;;;;;3.27;1.70;;;11.70;99.90;;;;;;5090383;28;20467;-70
2022/12/29 11:13:14;;;;;;;2.73;2.20;;;11.60;99.90;;;;;;5089883;28;20574;-71
2022/12/29 11:15:42;;;;;;;3.37;1.93;;;11.50;99.90;;;;;;5089943;28;20459;-71
2022/12/29 11:18:20;;;;;;;5.30;2.10;;;11.50;99.90;;;;;;5090365;28;20509;-71
2022/12/29 11:20:48;;;;;;;1.87;1.40;;;11.40;99.90;;;;;;5089947;28;20550;-71
2022/12/29 11:23:30;;;;;;;4.23;2.20;;;11.30;99.90;;;;;;5089636;28;20484;-71
2022/12/29 11:26:16;;;;;;;2.67;2.47;;;11.40;99.90;;;;;;5087273;28;20470;-71
2022/12/29 11:28:44;;;;;;;3.37;2.60;;;11.30;99.90;;;;;;5090062;28;20458;-71
2022/12/29 11:31:11;;;;;;;3.30;2.23;;;11.30;99.90;;;;;;5090112;28;20853;-71
2022/12/29 11:33:39;;;;;;;1.63;1.53;;;11.40;99.90;;;;;;5089539;28;20500;-72
2022/12/29 11:36:09;;;;;;;3.53;2.23;;;11.40;99.90;;;;;;5089495;28;20864;-72
2022/12/29 11:38:40;;;;;;;3.00;2.00;;;11.40;99.90;;;;;;5089579;28;20500;-72
2022/12/29 11:41:11;;;;;;;2.23;1.30;;;11.40;99.90;;;;;;5089782;28;20475;-71
2022/12/29 11:43:41;;;;;;;1.40;1.30;;;11.40;99.90;;;;;;5089151;28;20978;-71
2022/12/29 11:46:15;;;;;;;2.60;1.40;;;11.30;99.90;;;;;;5089302;28;20822;-71
2022/12/29 11:48:43;;;;;;;9.80;1.90;;;11.30;99.90;;;;;;5087917;28;20451;-72
2022/12/29 11:51:11;;;;;;;2.03;1.70;;;11.30;99.90;;;;;;5089706;28;20520;-71
2022/12/29 11:53:43;;;;;;;1.57;1.47;;;11.30;99.90;;;;;;5088833;28;20444;-72
2022/12/29 11:56:15;;;;;;;1.83;1.57;;;11.30;99.90;;;;;;5089326;28;20447;-71
2022/12/29 11:58:41;;;;;;;1.33;1.23;;;11.40;99.90;;;;;;5088861;28;20454;-72
2022/12/29 12:01:14;;;;;;;4.03;1.87;;;11.50;99.90;;;;;;5088880;28;21039;-72
2022/12/29 12:03:48;;;;;;;2.70;2.10;;;11.50;99.90;;;;;;5089641;28;20502;-71
2022/12/29 12:06:20;;;;;;;4.43;1.53;;;11.50;99.90;;;;;;5089301;28;20487;-72
2022/12/29 12:08:55;;;;;;;2.90;1.50;;;11.50;99.90;;;;;;5089627;28;20444;-71
2022/12/29 12:11:28;;;;;;;3.03;1.50;;;11.50;99.90;;;;;;5089077;28;20454;-71
2022/12/29 12:14:01;;;;;;;4.00;1.60;;;11.40;99.90;;;;;;5089532;28;20969;-71
2022/12/29 12:16:32;;;;;;;3.40;1.87;;;11.40;99.90;;;;;;5088689;28;20521;-71
2022/12/29 12:19:04;;;;;;;4.33;1.50;;;11.30;99.90;;;;;;5087997;28;20489;-71
2022/12/29 12:21:35;;;;;;;4.73;1.80;;;11.40;99.90;;;;;;5087157;28;20515;-70
2022/12/29 12:24:37;;;;;;;4.13;1.90;;;11.30;99.90;;;;;;5089154;28;20880;-70
2022/12/29 12:27:13;;;;;;;7.03;2.33;;;11.30;99.90;;;;;;5082266;28;20767;-70
2022/12/29 12:29:47;;;;;;;5.53;1.67;;;11.30;99.90;;;;;;5085699;28;20471;-71
2022/12/29 12:32:18;;;;;;;3.33;1.50;;;11.30;99.90;;;;;;5085830;28;20513;-71
2022/12/29 12:34:47;;;;;;;2.10;1.50;;;11.30;99.90;;;;;;5087407;28;20465;-71
2022/12/29 12:37:40;;;;;;;5.00;1.60;;;11.30;99.90;;;;;;5088742;28;20456;-71
2022/12/29 12:40:35;;;;;;;5.60;1.83;;;11.30;99.90;;;;;;5086779;28;20525;-71
2022/12/29 12:43:16;;;;;;;3.30;1.80;;;11.30;99.90;;;;;;5082045;28;20463;-71
2022/12/29 12:45:53;;;;;;;4.57;1.70;;;11.30;99.90;;;;;;5086421;28;20495;-71
2022/12/29 12:48:48;;;;;;;4.33;2.10;;;11.30;99.90;;;;;;5083510;28;20546;-71
2022/12/29 12:51:20;;;;;;;5.13;1.90;;;11.40;99.90;;;;;;5086660;28;20501;-71
2022/12/29 12:54:02;;;;;;;6.70;2.07;;;11.70;99.90;;;;;;5088085;28;20460;-71
2022/12/29 12:56:56;;;;;;;5.63;1.90;;;11.90;99.90;;;;;;5087785;28;20829;-71
2022/12/29 12:59:38;;;;;;;3.37;2.23;;;12.20;99.90;;;;;;5085813;28;20478;-70
2022/12/29 13:02:18;;;;;;;3.47;1.97;;;12.40;99.90;;;;;;5087273;28;20456;-70
2022/12/29 13:05:09;;;;;;;3.20;1.90;;;12.70;99.90;;;;;;5088044;28;20946;-70
2022/12/29 13:07:45;;;;;;;7.60;2.03;;;12.90;99.90;;;;;;5087948;28;20503;-71
2022/12/29 13:10:35;;;;;;;5.67;2.30;;;12.90;99.90;;;;;;5087806;28;20464;-71
2022/12/29 13:13:33;;;;;;;5.10;2.43;;;12.80;99.90;;;;;;5087650;28;20513;-71
2022/12/29 13:16:06;;;;;;;3.43;1.50;;;12.60;99.90;;;;;;5087395;28;20941;-70
2022/12/29 13:18:38;;;;;;;3.30;1.70;;;12.40;99.90;;;;;;5087613;28;20462;-71
2022/12/29 13:21:11;;;;;;;5.97;1.73;;;12.30;99.90;;;;;;5087837;28;20516;-71
2022/12/29 13:23:43;;;;;;;7.87;2.33;;;12.10;99.90;;;;;;5086136;28;20462;-70
2022/12/29 13:26:16;;;;;;;4.53;1.87;;;12.00;99.90;;;;;;5087611;28;20540;-70
2022/12/29 13:28:52;;;;;;;2.80;1.80;;;11.90;99.90;;;;;;5086988;28;20508;-71
2022/12/29 13:31:26;;;;;;;3.77;1.40;;;11.80;99.90;;;;;;5087277;28;20504;-71
2022/12/29 13:34:01;;;;;;;5.90;1.97;;;11.80;99.90;;;;;;5087539;28;20507;-70
2022/12/29 13:36:34;;;;;;;3.30;1.80;;;11.70;99.90;;;;;;5086479;28;20469;-71
2022/12/29 13:39:09;;;;;;;4.63;1.77;;;11.70;99.90;;;;;;5087905;28;20943;-71